sensor_id;sensor_type;location;lat;lon;timestamp;pressure;altitude;pressure_sealevel;temperature;humidity
57668;BME280;43499;52.366;12.912;2024-03-25T00:00:24;99515.19;;;5.61;100.00
57668;BME280;43499;52.366;12.912;2024-03-25T00:01:25;99510.75;;;5.60;100.00
57668;BME280;43499;52.366;12.912;2024-03-25T00:02:26;99503.72;;;5.59;100.00
57668;BME280;43499;52.366;12.912;2024-03-25T00:03:27;99516.81;;;5.49;100.00
57668;BME280;43499;52.366;12.912;2024-03-25T00:04:28;99519.09;;;5.56;100.00
57668;BME280;43499;52.366;12.912;2024-03-25T00:05:29;99501.41;;;5.52;100.00
57668;BME280;43499;52.366;12.912;2024-03-25T00:06:31;99515.47;;;5.54;100.00
57668;BME280;43499;52.366;12.912;2024-03-25T00:07:34;99517.94;;;5.52;100.00
57668;BME280;43499;52.366;12.912;2024-03-25T00:08:35;99520.56;;;5.52;100.00
57668;BME280;43499;52.366;12.912;2024-03-25T00:09:36;99522.75;;;5.58;100.00
57668;BME280;43499;52.366;12.912;2024-03-25T00:10:37;99508.69;;;5.56;100.00
57668;BME280;43499;52.366;12.912;2024-03-25T00:11:38;99515.97;;;5.60;100.00
57668;BME280;43499;52.366;12.912;2024-03-25T00:12:38;99518.44;;;5.69;100.00
57668;BME280;43499;52.366;12.912;2024-03-25T00:13:39;99522.72;;;5.68;100.00
57668;BME280;43499;52.366;12.912;2024-03-25T00:14:40;99518.53;;;5.70;100.00
57668;BME280;43499;52.366;12.912;2024-03-25T00:15:41;99509.69;;;5.68;100.00
57668;BME280;43499;52.366;12.912;2024-03-25T00:16:43;99516.09;;;5.62;100.00
57668;BME280;43499;52.366;12.912;2024-03-25T00:17:44;99526.25;;;5.59;100.00
57668;BME280;43499;52.366;12.912;2024-03-25T00:18:45;99525.63;;;5.61;100.00
57668;BME280;43499;52.366;12.912;2024-03-25T00:19:46;99516.09;;;5.62;100.00
57668;BME280;43499;52.366;12.912;2024-03-25T00:20:51;99529.38;;;5.65;100.00
57668;BME280;43499;52.366;12.912;2024-03-25T00:21:52;99517.25;;;5.65;100.00
57668;BME280;43499;52.366;12.912;2024-03-25T00:22:53;99471.50;;;5.36;100.00
57668;BME280;43499;52.366;12.912;2024-03-25T00:23:54;99523.91;;;5.62;100.00
57668;BME280;43499;52.366;12.912;2024-03-25T00:24:57;99531.72;;;5.62;100.00
57668;BME280;43499;52.366;12.912;2024-03-25T00:25:58;99532.88;;;5.65;100.00
57668;BME280;43499;52.366;12.912;2024-03-25T00:26:59;99529.13;;;5.62;100.00
57668;BME280;43499;52.366;12.912;2024-03-25T00:27:59;99532.25;;;5.68;100.00
57668;BME280;43499;52.366;12.912;2024-03-25T00:29:00;99531.06;;;5.64;100.00
57668;BME280;43499;52.366;12.912;2024-03-25T00:30:01;99536.69;;;5.69;100.00
57668;BME280;43499;52.366;12.912;2024-03-25T00:31:02;99538.28;;;5.56;100.00
57668;BME280;43499;52.366;12.912;2024-03-25T00:32:03;99535.25;;;5.62;100.00
57668;BME280;43499;52.366;12.912;2024-03-25T00:33:04;99543.72;;;5.60;100.00
57668;BME280;43499;52.366;12.912;2024-03-25T00:34:07;99517.06;;;5.41;100.00
57668;BME280;43499;52.366;12.912;2024-03-25T00:35:08;99546.31;;;5.60;100.00
57668;BME280;43499;52.366;12.912;2024-03-25T00:36:09;99546.09;;;5.56;100.00
57668;BME280;43499;52.366;12.912;2024-03-25T00:37:10;99543.75;;;5.49;100.00
57668;BME280;43499;52.366;12.912;2024-03-25T00:38:11;99545.16;;;5.56;100.00
57668;BME280;43499;52.366;12.912;2024-03-25T00:39:12;99539.19;;;5.57;100.00
57668;BME280;43499;52.366;12.912;2024-03-25T00:40:14;99544.66;;;5.60;100.00
57668;BME280;43499;52.366;12.912;2024-03-25T00:41:15;99542.31;;;5.63;100.00
57668;BME280;43499;52.366;12.912;2024-03-25T00:42:15;99547.38;;;5.62;100.00
57668;BME280;43499;52.366;12.912;2024-03-25T00:43:16;99548.81;;;5.58;100.00
57668;BME280;43499;52.366;12.912;2024-03-25T00:44:18;99548.81;;;5.58;100.00
57668;BME280;43499;52.366;12.912;2024-03-25T00:45:18;99547.53;;;5.53;100.00
57668;BME280;43499;52.366;12.912;2024-03-25T00:46:19;99550.28;;;5.54;100.00
57668;BME280;43499;52.366;12.912;2024-03-25T00:47:20;99550.75;;;5.61;100.00
57668;BME280;43499;52.366;12.912;2024-03-25T00:48:21;99552.31;;;5.59;100.00
57668;BME280;43499;52.366;12.912;2024-03-25T00:49:22;99550.38;;;5.56;100.00
57668;BME280;43499;52.366;12.912;2024-03-25T00:50:23;99548.56;;;5.55;100.00
57668;BME280;43499;52.366;12.912;2024-03-25T00:51:24;99557.41;;;5.57;100.00
57668;BME280;43499;52.366;12.912;2024-03-25T00:52:25;99552.72;;;5.53;100.00
57668;BME280;43499;52.366;12.912;2024-03-25T00:53:25;99554.72;;;5.55;100.00
57668;BME280;43499;52.366;12.912;2024-03-25T00:54:26;99549.13;;;5.51;100.00
57668;BME280;43499;52.366;12.912;2024-03-25T00:55:28;99547.81;;;5.46;100.00
57668;BME280;43499;52.366;12.912;2024-03-25T00:56:29;99553.69;;;5.43;100.00
57668;BME280;43499;52.366;12.912;2024-03-25T00:57:30;99557.19;;;5.44;100.00
57668;BME280;43499;52.366;12.912;2024-03-25T00:58:31;99552.34;;;5.48;100.00
57668;BME280;43499;52.366;12.912;2024-03-25T00:59:31;99558.34;;;5.47;100.00
57668;BME280;43499;52.366;12.912;2024-03-25T01:00:32;99556.28;;;5.53;100.00
57668;BME280;43499;52.366;12.912;2024-03-25T01:01:33;99552.25;;;5.47;100.00
57668;BME280;43499;52.366;12.912;2024-03-25T01:02:36;99560.56;;;5.53;100.00
57668;BME280;43499;52.366;12.912;2024-03-25T01:03:37;99553.00;;;5.56;100.00
57668;BME280;43499;52.366;12.912;2024-03-25T01:04:38;99556.38;;;5.55;100.00
57668;BME280;43499;52.366;12.912;2024-03-25T01:05:39;99553.53;;;5.52;100.00
57668;BME280;43499;52.366;12.912;2024-03-25T01:06:40;99561.38;;;5.52;100.00
57668;BME280;43499;52.366;12.912;2024-03-25T01:07:41;99559.00;;;5.55;100.00
57668;BME280;43499;52.366;12.912;2024-03-25T01:08:42;99551.44;;;5.58;100.00
57668;BME280;43499;52.366;12.912;2024-03-25T01:09:42;99560.97;;;5.58;100.00
57668;BME280;43499;52.366;12.912;2024-03-25T01:10:43;99560.28;;;5.60;100.00
57668;BME280;43499;52.366;12.912;2024-03-25T01:11:44;99558.09;;;5.54;100.00
57668;BME280;43499;52.366;12.912;2024-03-25T01:12:45;99565.25;;;5.57;100.00
57668;BME280;43499;52.366;12.912;2024-03-25T01:13:46;99564.34;;;5.56;100.00
57668;BME280;43499;52.366;12.912;2024-03-25T01:14:47;99566.59;;;5.52;100.00
57668;BME280;43499;52.366;12.912;2024-03-25T01:15:47;99561.38;;;5.52;100.00
57668;BME280;43499;52.366;12.912;2024-03-25T01:16:48;99561.09;;;5.49;100.00
57668;BME280;43499;52.366;12.912;2024-03-25T01:17:49;99561.63;;;5.45;100.00
57668;BME280;43499;52.366;12.912;2024-03-25T01:18:50;99567.22;;;5.49;100.00
57668;BME280;43499;52.366;12.912;2024-03-25T01:19:51;99557.75;;;5.39;100.00
57668;BME280;43499;52.366;12.912;2024-03-25T01:20:52;99564.78;;;5.40;100.00
57668;BME280;43499;52.366;12.912;2024-03-25T01:21:53;99564.91;;;5.42;100.00
57668;BME280;43499;52.366;12.912;2024-03-25T01:22:54;99569.34;;;5.43;100.00
57668;BME280;43499;52.366;12.912;2024-03-25T01:23:55;99566.84;;;5.45;100.00
57668;BME280;43499;52.366;12.912;2024-03-25T01:24:56;99565.56;;;5.39;100.00
57668;BME280;43499;52.366;12.912;2024-03-25T01:25:57;99572.19;;;5.36;100.00
57668;BME280;43499;52.366;12.912;2024-03-25T01:26:58;99565.81;;;5.32;100.00
57668;BME280;43499;52.366;12.912;2024-03-25T01:27:59;99575.06;;;5.39;100.00
57668;BME280;43499;52.366;12.912;2024-03-25T01:29:00;99577.81;;;5.40;100.00
57668;BME280;43499;52.366;12.912;2024-03-25T01:30:00;99572.84;;;5.44;100.00
57668;BME280;43499;52.366;12.912;2024-03-25T01:31:04;99579.19;;;5.47;100.00
57668;BME280;43499;52.366;12.912;2024-03-25T01:32:05;99570.97;;;5.53;100.00
57668;BME280;43499;52.366;12.912;2024-03-25T01:33:06;99568.78;;;5.58;100.00
57668;BME280;43499;52.366;12.912;2024-03-25T01:34:06;99544.84;;;5.41;100.00
57668;BME280;43499;52.366;12.912;2024-03-25T01:35:07;99575.66;;;5.57;100.00
57668;BME280;43499;52.366;12.912;2024-03-25T01:36:08;99573.72;;;5.54;100.00
57668;BME280;43499;52.366;12.912;2024-03-25T01:37:11;99573.59;;;5.53;100.00
57668;BME280;43499;52.366;12.912;2024-03-25T01:38:12;99571.66;;;5.50;100.00
57668;BME280;43499;52.366;12.912;2024-03-25T01:39:13;99581.41;;;5.53;100.00
57668;BME280;43499;52.366;12.912;2024-03-25T01:40:14;99581.41;;;5.53;100.00
57668;BME280;43499;52.366;12.912;2024-03-25T01:41:19;99579.06;;;5.56;100.00
57668;BME280;43499;52.366;12.912;2024-03-25T01:42:20;99574.63;;;5.55;100.00
57668;BME280;43499;52.366;12.912;2024-03-25T01:43:21;99577.38;;;5.56;100.00
57668;BME280;43499;52.366;12.912;2024-03-25T01:44:22;99581.63;;;5.66;100.00
57668;BME280;43499;52.366;12.912;2024-03-25T01:45:23;99552.53;;;5.39;100.00
57668;BME280;43499;52.366;12.912;2024-03-25T01:46:24;99588.41;;;5.64;100.00
57668;BME280;43499;52.366;12.912;2024-03-25T01:47:25;99590.91;;;5.63;100.00
57668;BME280;43499;52.366;12.912;2024-03-25T01:48:26;99586.47;;;5.62;100.00
57668;BME280;43499;52.366;12.912;2024-03-25T01:49:27;99590.66;;;5.60;100.00
57668;BME280;43499;52.366;12.912;2024-03-25T01:50:28;99589.22;;;5.53;100.00
57668;BME280;43499;52.366;12.912;2024-03-25T01:51:29;99596.78;;;5.60;100.00
57668;BME280;43499;52.366;12.912;2024-03-25T01:52:30;99596.38;;;5.66;100.00
57668;BME280;43499;52.366;12.912;2024-03-25T01:53:31;99599.66;;;5.63;100.00
57668;BME280;43499;52.366;12.912;2024-03-25T01:54:32;99595.75;;;5.58;100.00
57668;BME280;43499;52.366;12.912;2024-03-25T01:55:33;99598.84;;;5.64;100.00
57668;BME280;43499;52.366;12.912;2024-03-25T01:56:35;99602.25;;;5.63;100.00
57668;BME280;43499;52.366;12.912;2024-03-25T01:57:37;99594.44;;;5.53;100.00
57668;BME280;43499;52.366;12.912;2024-03-25T01:58:39;99599.25;;;5.59;100.00
57668;BME280;43499;52.366;12.912;2024-03-25T01:59:40;99595.63;;;5.56;100.00
57668;BME280;43499;52.366;12.912;2024-03-25T02:00:41;99600.06;;;5.58;100.00
57668;BME280;43499;52.366;12.912;2024-03-25T02:01:44;99595.66;;;5.46;100.00
57668;BME280;43499;52.366;12.912;2024-03-25T02:02:45;99593.06;;;5.46;100.00
57668;BME280;43499;52.366;12.912;2024-03-25T02:03:47;99602.66;;;5.47;100.00
57668;BME280;43499;52.366;12.912;2024-03-25T02:04:48;99603.06;;;5.41;100.00
57668;BME280;43499;52.366;12.912;2024-03-25T02:05:50;99606.59;;;5.42;100.00
57668;BME280;43499;52.366;12.912;2024-03-25T02:06:53;99602.81;;;5.49;100.00
57668;BME280;43499;52.366;12.912;2024-03-25T02:07:56;99610.38;;;5.46;100.00
57668;BME280;43499;52.366;12.912;2024-03-25T02:08:57;99610.63;;;5.49;100.00
57668;BME280;43499;52.366;12.912;2024-03-25T02:09:58;99608.81;;;5.48;100.00
57668;BME280;43499;52.366;12.912;2024-03-25T02:10:59;99612.44;;;5.50;100.00
57668;BME280;43499;52.366;12.912;2024-03-25T02:12:01;99614.78;;;5.47;100.00
57668;BME280;43499;52.366;12.912;2024-03-25T02:13:02;99617.41;;;5.47;100.00
57668;BME280;43499;52.366;12.912;2024-03-25T02:14:03;99618.72;;;5.52;100.00
57668;BME280;43499;52.366;12.912;2024-03-25T02:15:04;99620.50;;;5.53;100.00
57668;BME280;43499;52.366;12.912;2024-03-25T02:16:05;99615.84;;;5.49;100.00
57668;BME280;43499;52.366;12.912;2024-03-25T02:17:06;99612.47;;;5.39;100.00
57668;BME280;43499;52.366;12.912;2024-03-25T02:18:08;99611.03;;;5.43;100.00
57668;BME280;43499;52.366;12.912;2024-03-25T02:19:08;99615.97;;;5.40;100.00
57668;BME280;43499;52.366;12.912;2024-03-25T02:20:12;99616.50;;;5.36;100.00
57668;BME280;43499;52.366;12.912;2024-03-25T02:21:16;99620.94;;;5.27;100.00
57668;BME280;43499;52.366;12.912;2024-03-25T02:22:17;99620.44;;;5.31;100.00
57668;BME280;43499;52.366;12.912;2024-03-25T02:23:18;99624.97;;;5.33;100.00
57668;BME280;43499;52.366;12.912;2024-03-25T02:24:19;99628.75;;;5.37;100.00
57668;BME280;43499;52.366;12.912;2024-03-25T02:25:21;99624.97;;;5.33;100.00
57668;BME280;43499;52.366;12.912;2024-03-25T02:26:22;99623.03;;;5.20;100.00
57668;BME280;43499;52.366;12.912;2024-03-25T02:27:24;99631.25;;;5.25;100.00
57668;BME280;43499;52.366;12.912;2024-03-25T02:28:25;99633.94;;;5.37;100.00
57668;BME280;43499;52.366;12.912;2024-03-25T02:29:32;99629.94;;;5.40;100.00
57668;BME280;43499;52.366;12.912;2024-03-25T02:30:33;99633.94;;;5.37;100.00
57668;BME280;43499;52.366;12.912;2024-03-25T02:31:34;99638.28;;;5.26;100.00
57668;BME280;43499;52.366;12.912;2024-03-25T02:32:35;99639.19;;;5.27;100.00
57668;BME280;43499;52.366;12.912;2024-03-25T02:33:36;99635.28;;;5.32;100.00
57668;BME280;43499;52.366;12.912;2024-03-25T02:34:37;99636.72;;;5.38;100.00
57668;BME280;43499;52.366;12.912;2024-03-25T02:35:39;99637.34;;;5.36;100.00
57668;BME280;43499;52.366;12.912;2024-03-25T02:36:41;99640.50;;;5.32;100.00
57668;BME280;43499;52.366;12.912;2024-03-25T02:37:42;99642.31;;;5.33;100.00
57668;BME280;43499;52.366;12.912;2024-03-25T02:38:43;99642.81;;;5.39;100.00
57668;BME280;43499;52.366;12.912;2024-03-25T02:39:44;99636.44;;;5.35;100.00
57668;BME280;43499;52.366;12.912;2024-03-25T02:40:45;99643.47;;;5.36;100.00
57668;BME280;43499;52.366;12.912;2024-03-25T02:41:46;99639.81;;;5.34;100.00
57668;BME280;43499;52.366;12.912;2024-03-25T02:42:47;99639.56;;;5.31;100.00
57668;BME280;43499;52.366;12.912;2024-03-25T02:43:48;99644.25;;;5.35;100.00
57668;BME280;43499;52.366;12.912;2024-03-25T02:44:49;99647.38;;;5.41;100.00
57668;BME280;43499;52.366;12.912;2024-03-25T02:45:50;99648.03;;;5.39;100.00
57668;BME280;43499;52.366;12.912;2024-03-25T02:46:51;99647.63;;;5.45;100.00
57668;BME280;43499;52.366;12.912;2024-03-25T02:47:52;99651.00;;;5.44;100.00
57668;BME280;43499;52.366;12.912;2024-03-25T02:48:53;99646.59;;;5.43;100.00
57668;BME280;43499;52.366;12.912;2024-03-25T02:49:54;99655.19;;;5.41;100.00
57668;BME280;43499;52.366;12.912;2024-03-25T02:50:55;99644.38;;;5.37;100.00
57668;BME280;43499;52.366;12.912;2024-03-25T02:51:56;99650.66;;;5.29;100.00
57668;BME280;43499;52.366;12.912;2024-03-25T02:52:57;99649.47;;;5.35;100.00
57668;BME280;43499;52.366;12.912;2024-03-25T02:53:58;99654.28;;;5.41;100.00
57668;BME280;43499;52.366;12.912;2024-03-25T02:54:58;99648.16;;;5.30;100.00
57668;BME280;43499;52.366;12.912;2024-03-25T02:55:59;99654.03;;;5.28;100.00
57668;BME280;43499;52.366;12.912;2024-03-25T02:57:00;99660.41;;;5.31;100.00
57668;BME280;43499;52.366;12.912;2024-03-25T02:58:01;99661.84;;;5.28;100.00
57668;BME280;43499;52.366;12.912;2024-03-25T02:59:02;99666.28;;;5.29;100.00
57668;BME280;43499;52.366;12.912;2024-03-25T03:00:03;99668.59;;;5.36;100.00
57668;BME280;43499;52.366;12.912;2024-03-25T03:01:04;99667.72;;;5.35;100.00
57668;BME280;43499;52.366;12.912;2024-03-25T03:02:05;99667.97;;;5.38;100.00
57668;BME280;43499;52.366;12.912;2024-03-25T03:03:06;99672.25;;;5.38;100.00
57668;BME280;43499;52.366;12.912;2024-03-25T03:04:07;99672.91;;;5.46;100.00
57668;BME280;43499;52.366;12.912;2024-03-25T03:05:07;99673.28;;;5.50;100.00
57668;BME280;43499;52.366;12.912;2024-03-25T03:06:08;99676.84;;;5.51;100.00
57668;BME280;43499;52.366;12.912;2024-03-25T03:07:09;99676.69;;;5.49;100.00
57668;BME280;43499;52.366;12.912;2024-03-25T03:08:10;99674.47;;;5.44;100.00
57668;BME280;43499;52.366;12.912;2024-03-25T03:09:11;99673.84;;;5.46;100.00
57668;BME280;43499;52.366;12.912;2024-03-25T03:10:12;99677.06;;;5.44;100.00
57668;BME280;43499;52.366;12.912;2024-03-25T03:11:13;99677.84;;;5.43;100.00
57668;BME280;43499;52.366;12.912;2024-03-25T03:12:13;99676.44;;;5.36;100.00
57668;BME280;43499;52.366;12.912;2024-03-25T03:13:14;99678.25;;;5.37;100.00
57668;BME280;43499;52.366;12.912;2024-03-25T03:14:15;99684.50;;;5.39;100.00
57668;BME280;43499;52.366;12.912;2024-03-25T03:15:16;99680.63;;;5.44;100.00
57668;BME280;43499;52.366;12.912;2024-03-25T03:16:17;99694.81;;;5.48;100.00
57668;BME280;43499;52.366;12.912;2024-03-25T03:17:18;99689.59;;;5.48;100.00
57668;BME280;43499;52.366;12.912;2024-03-25T03:18:18;99691.94;;;5.45;100.00
57668;BME280;43499;52.366;12.912;2024-03-25T03:19:19;99688.44;;;5.44;100.00
57668;BME280;43499;52.366;12.912;2024-03-25T03:20:21;99697.53;;;5.39;100.00
57668;BME280;43499;52.366;12.912;2024-03-25T03:21:22;99698.47;;;5.39;100.00
57668;BME280;43499;52.366;12.912;2024-03-25T03:22:22;99698.47;;;5.39;100.00
57668;BME280;43499;52.366;12.912;2024-03-25T03:23:23;99697.03;;;5.43;100.00
57668;BME280;43499;52.366;12.912;2024-03-25T03:24:24;99691.94;;;5.34;100.00
57668;BME280;43499;52.366;12.912;2024-03-25T03:25:25;99697.28;;;5.36;100.00
57668;BME280;43499;52.366;12.912;2024-03-25T03:26:26;99697.94;;;5.44;100.00
57668;BME280;43499;52.366;12.912;2024-03-25T03:27:27;99707.31;;;5.41;100.00
57668;BME280;43499;52.366;12.912;2024-03-25T03:28:28;99697.53;;;5.39;100.00
57668;BME280;43499;52.366;12.912;2024-03-25T03:29:29;99702.25;;;5.43;100.00
57668;BME280;43499;52.366;12.912;2024-03-25T03:30:30;99705.34;;;5.39;100.00
57668;BME280;43499;52.366;12.912;2024-03-25T03:31:31;99706.41;;;5.41;100.00
57668;BME280;43499;52.366;12.912;2024-03-25T03:32:32;99706.28;;;5.39;100.00
57668;BME280;43499;52.366;12.912;2024-03-25T03:33:33;99709.13;;;5.43;100.00
57668;BME280;43499;52.366;12.912;2024-03-25T03:34:33;99715.38;;;5.45;100.00
57668;BME280;43499;52.366;12.912;2024-03-25T03:35:34;99707.06;;;5.49;100.00
57668;BME280;43499;52.366;12.912;2024-03-25T03:36:35;99706.53;;;5.43;100.00
57668;BME280;43499;52.366;12.912;2024-03-25T03:37:36;99710.72;;;5.40;100.00
57668;BME280;43499;52.366;12.912;2024-03-25T03:38:37;99707.47;;;5.43;100.00
57668;BME280;43499;52.366;12.912;2024-03-25T03:39:38;99723.59;;;5.49;100.00
57668;BME280;43499;52.366;12.912;2024-03-25T03:40:39;99716.44;;;5.47;100.00
57668;BME280;43499;52.366;12.912;2024-03-25T03:41:40;99715.25;;;5.53;100.00
57668;BME280;43499;52.366;12.912;2024-03-25T03:42:40;99723.09;;;5.53;100.00
57668;BME280;43499;52.366;12.912;2024-03-25T03:43:41;99725.81;;;5.55;100.00
57668;BME280;43499;52.366;12.912;2024-03-25T03:44:42;99723.88;;;5.52;100.00
57668;BME280;43499;52.366;12.912;2024-03-25T03:45:43;99724.25;;;5.57;100.00
57668;BME280;43499;52.366;12.912;2024-03-25T03:46:44;99730.53;;;5.49;100.00
57668;BME280;43499;52.366;12.912;2024-03-25T03:47:45;99722.81;;;5.50;100.00
57668;BME280;43499;52.366;12.912;2024-03-25T03:48:46;99731.69;;;5.52;100.00
57668;BME280;43499;52.366;12.912;2024-03-25T03:49:47;99739.50;;;5.52;100.00
57668;BME280;43499;52.366;12.912;2024-03-25T03:50:47;99731.31;;;5.48;100.00
57668;BME280;43499;52.366;12.912;2024-03-25T03:51:48;99732.84;;;5.46;100.00
57668;BME280;43499;52.366;12.912;2024-03-25T03:52:49;99733.25;;;5.50;100.00
57668;BME280;43499;52.366;12.912;2024-03-25T03:53:50;99742.00;;;5.51;100.00
57668;BME280;43499;52.366;12.912;2024-03-25T03:54:51;99736.25;;;5.55;100.00
57668;BME280;43499;52.366;12.912;2024-03-25T03:55:59;99740.00;;;5.59;100.00
57668;BME280;43499;52.366;12.912;2024-03-25T03:57:00;99739.78;;;5.55;100.00
57668;BME280;43499;52.366;12.912;2024-03-25T03:58:00;99738.72;;;5.53;100.00
57668;BME280;43499;52.366;12.912;2024-03-25T03:59:01;99738.47;;;5.50;100.00
57668;BME280;43499;52.366;12.912;2024-03-25T04:00:02;99743.66;;;5.50;100.00
57668;BME280;43499;52.366;12.912;2024-03-25T04:01:16;99743.66;;;5.50;100.00
57668;BME280;43499;52.366;12.912;2024-03-25T04:02:18;99742.00;;;5.51;100.00
57668;BME280;43499;52.366;12.912;2024-03-25T04:03:19;99742.22;;;5.54;100.00
57668;BME280;43499;52.366;12.912;2024-03-25T04:04:20;99744.84;;;5.54;100.00
57668;BME280;43499;52.366;12.912;2024-03-25T04:05:20;99749.28;;;5.55;100.00
57668;BME280;43499;52.366;12.912;2024-03-25T04:06:21;99743.66;;;5.50;100.00
57668;BME280;43499;52.366;12.912;2024-03-25T04:07:22;99751.50;;;5.50;100.00
57668;BME280;43499;52.366;12.912;2024-03-25T04:08:29;99745.63;;;5.53;100.00
57668;BME280;43499;52.366;12.912;2024-03-25T04:09:30;99758.53;;;5.51;100.00
57668;BME280;43499;52.366;12.912;2024-03-25T04:10:31;99743.56;;;5.49;100.00
57668;BME280;43499;52.366;12.912;2024-03-25T04:11:34;99743.66;;;5.50;100.00
57668;BME280;43499;52.366;12.912;2024-03-25T04:12:36;99758.53;;;5.51;100.00
57668;BME280;43499;52.366;12.912;2024-03-25T04:13:37;99754.09;;;5.50;100.00
57668;BME280;43499;52.366;12.912;2024-03-25T04:14:38;99753.59;;;5.44;100.00
57668;BME280;43499;52.366;12.912;2024-03-25T04:15:40;99752.41;;;5.40;100.00
57668;BME280;43499;52.366;12.912;2024-03-25T04:16:41;99757.47;;;5.49;100.00
57668;BME280;43499;52.366;12.912;2024-03-25T04:17:42;99758.53;;;5.51;100.00
57668;BME280;43499;52.366;12.912;2024-03-25T04:18:47;99757.63;;;5.51;100.00
57668;BME280;43499;52.366;12.912;2024-03-25T04:19:48;99758.66;;;5.53;100.00
57668;BME280;43499;52.366;12.912;2024-03-25T04:20:49;99761.13;;;5.51;100.00
57668;BME280;43499;52.366;12.912;2024-03-25T04:21:50;99767.53;;;5.55;100.00
57668;BME280;43499;52.366;12.912;2024-03-25T04:22:51;99763.88;;;5.53;100.00
57668;BME280;43499;52.366;12.912;2024-03-25T04:23:52;99762.06;;;5.52;100.00
57668;BME280;43499;52.366;12.912;2024-03-25T04:24:53;99764.69;;;5.52;100.00
57668;BME280;43499;52.366;12.912;2024-03-25T04:25:54;99769.34;;;5.46;100.00
57668;BME280;43499;52.366;12.912;2024-03-25T04:26:55;99770.28;;;5.46;100.00
57668;BME280;43499;52.366;12.912;2024-03-25T04:27:55;99775.72;;;5.49;100.00
57668;BME280;43499;52.366;12.912;2024-03-25T04:28:56;99777.03;;;5.44;100.00
57668;BME280;43499;52.366;12.912;2024-03-25T04:29:57;99772.72;;;5.45;100.00
57668;BME280;43499;52.366;12.912;2024-03-25T04:30:58;99771.28;;;5.48;100.00
57668;BME280;43499;52.366;12.912;2024-03-25T04:31:59;99776.00;;;5.52;100.00
57668;BME280;43499;52.366;12.912;2024-03-25T04:33:00;99777.72;;;5.52;100.00
57668;BME280;43499;52.366;12.912;2024-03-25T04:34:01;99774.69;;;5.47;100.00
57668;BME280;43499;52.366;12.912;2024-03-25T04:35:02;99775.72;;;5.49;100.00
57668;BME280;43499;52.366;12.912;2024-03-25T04:36:03;99774.16;;;5.51;100.00
57668;BME280;43499;52.366;12.912;2024-03-25T04:37:04;99780.44;;;5.53;100.00
57668;BME280;43499;52.366;12.912;2024-03-25T04:38:05;99784.31;;;5.48;100.00
57668;BME280;43499;52.366;12.912;2024-03-25T04:39:06;99787.09;;;5.50;100.00
57668;BME280;43499;52.366;12.912;2024-03-25T04:40:09;99787.47;;;5.44;100.00
57668;BME280;43499;52.366;12.912;2024-03-25T04:41:10;99790.19;;;5.46;100.00
57668;BME280;43499;52.366;12.912;2024-03-25T04:42:11;99793.47;;;5.53;100.00
57668;BME280;43499;52.366;12.912;2024-03-25T04:43:11;99789.53;;;5.48;100.00
57668;BME280;43499;52.366;12.912;2024-03-25T04:44:12;99793.59;;;5.55;100.00
57668;BME280;43499;52.366;12.912;2024-03-25T04:45:13;99793.97;;;5.49;100.00
57668;BME280;43499;52.366;12.912;2024-03-25T04:46:14;99796.34;;;5.46;100.00
57668;BME280;43499;52.366;12.912;2024-03-25T04:47:15;99797.75;;;5.53;100.00
57668;BME280;43499;52.366;12.912;2024-03-25T04:48:16;99796.97;;;5.54;100.00
57668;BME280;43499;52.366;12.912;2024-03-25T04:49:17;99798.03;;;5.56;100.00
57668;BME280;43499;52.366;12.912;2024-03-25T04:50:17;99799.06;;;5.58;100.00
57668;BME280;43499;52.366;12.912;2024-03-25T04:51:18;99790.59;;;5.50;100.00
57668;BME280;43499;52.366;12.912;2024-03-25T04:52:19;99807.53;;;5.45;100.00
57668;BME280;43499;52.366;12.912;2024-03-25T04:53:23;99805.44;;;5.51;100.00
57668;BME280;43499;52.366;12.912;2024-03-25T04:54:24;99807.78;;;5.48;100.00
57668;BME280;43499;52.366;12.912;2024-03-25T04:55:25;99807.94;;;5.50;100.00
57668;BME280;43499;52.366;12.912;2024-03-25T04:56:26;99813.28;;;5.51;100.00
57668;BME280;43499;52.366;12.912;2024-03-25T04:57:27;99817.19;;;5.46;100.00
57668;BME280;43499;52.366;12.912;2024-03-25T04:58:28;99818.47;;;5.51;100.00
57668;BME280;43499;52.366;12.912;2024-03-25T04:59:28;99819.25;;;5.50;100.00
57668;BME280;43499;52.366;12.912;2024-03-25T05:00:29;99819.53;;;5.53;100.00
57668;BME280;43499;52.366;12.912;2024-03-25T05:01:30;99826.97;;;5.59;100.00
57668;BME280;43499;52.366;12.912;2024-03-25T05:02:31;99821.63;;;5.58;100.00
57668;BME280;43499;52.366;12.912;2024-03-25T05:03:32;99814.44;;;5.55;100.00
57668;BME280;43499;52.366;12.912;2024-03-25T05:04:33;99820.81;;;5.38;100.00
57668;BME280;43499;52.366;12.912;2024-03-25T05:05:34;99826.66;;;5.35;100.00
57668;BME280;43499;52.366;12.912;2024-03-25T05:06:35;99829.66;;;5.40;100.00
57668;BME280;43499;52.366;12.912;2024-03-25T05:07:36;99824.34;;;5.38;100.00
57668;BME280;43499;52.366;12.912;2024-03-25T05:08:38;99828.91;;;5.41;100.00
57668;BME280;43499;52.366;12.912;2024-03-25T05:09:39;99818.19;;;5.38;100.00
57668;BME280;43499;52.366;12.912;2024-03-25T05:10:40;99823.28;;;5.36;100.00
57668;BME280;43499;52.366;12.912;2024-03-25T05:11:41;99840.50;;;5.45;100.00
57668;BME280;43499;52.366;12.912;2024-03-25T05:12:42;99828.25;;;5.44;100.00
57668;BME280;43499;52.366;12.912;2024-03-25T05:13:44;99829.16;;;5.44;100.00
57668;BME280;43499;52.366;12.912;2024-03-25T05:14:45;99832.94;;;5.48;100.00
57668;BME280;43499;52.366;12.912;2024-03-25T05:15:52;99836.72;;;5.51;100.00
57668;BME280;43499;52.366;12.912;2024-03-25T05:16:53;99839.34;;;5.51;100.00
57668;BME280;43499;52.366;12.912;2024-03-25T05:17:54;99839.06;;;5.48;100.00
57668;BME280;43499;52.366;12.912;2024-03-25T05:18:55;99837.38;;;5.38;100.00
57668;BME280;43499;52.366;12.912;2024-03-25T05:19:56;99838.16;;;5.48;100.00